Time;durP1;ratioP1;P1;durP2;ratioP2;P2;SDS_P1;SDS_P2;PMS_P1;PMS_P2;Temp;Humidity;BMP_temperature;BMP_pressure;BME280_temperature;BME280_humidity;BME280_pressure;Samples;Min_cycle;Max_cycle;Signal;HPM_P1;HPM_P2
2022/06/28 00:00:33;;;;;;;4.57;2.10;;;12.40;99.90;;;;;;5116136;28;20205;-42
2022/06/28 00:02:58;;;;;;;5.03;1.60;;;12.40;99.90;;;;;;5116274;28;20174;-41
2022/06/28 00:05:24;;;;;;;7.37;2.37;;;12.40;99.90;;;;;;5116646;28;20265;-42
2022/06/28 00:07:49;;;;;;;4.20;1.53;;;12.30;99.90;;;;;;5098256;28;20193;-43
2022/06/28 00:10:16;;;;;;;5.77;1.97;;;12.30;99.90;;;;;;5116424;28;20665;-41
2022/06/28 00:12:42;;;;;;;3.27;1.70;;;12.30;99.90;;;;;;5116797;28;20189;-43
2022/06/28 00:17:55;;;;;;;4.20;1.53;;;12.20;99.90;;;;;;5116781;28;20568;-41
2022/06/28 00:20:21;;;;;;;3.57;1.60;;;12.20;99.90;;;;;;5116404;28;20202;-42
2022/06/28 00:22:47;;;;;;;1.47;1.37;;;12.20;99.90;;;;;;5116361;28;20235;-42
2022/06/28 00:25:12;;;;;;;4.63;1.97;;;12.10;99.90;;;;;;5116156;28;20605;-43
2022/06/28 00:27:39;;;;;;;4.70;1.90;;;12.10;99.90;;;;;;5116249;28;20637;-42
2022/06/28 00:30:05;;;;;;;3.97;1.87;;;12.10;99.90;;;;;;5116024;28;20206;-42
2022/06/28 00:32:32;;;;;;;7.27;1.70;;;12.10;99.90;;;;;;5116252;28;20642;-44
2022/06/28 00:34:58;;;;;;;2.87;1.40;;;12.00;99.90;;;;;;5098610;28;20182;-42
2022/06/28 00:37:24;;;;;;;6.47;2.60;;;12.10;99.90;;;;;;5116924;28;20228;-42
2022/06/28 00:39:50;;;;;;;5.23;1.80;;;12.00;99.90;;;;;;5098489;28;20572;-43
2022/06/28 00:42:15;;;;;;;1.60;1.50;;;12.00;99.90;;;;;;5115998;28;20200;-42
2022/06/28 00:44:41;;;;;;;2.87;1.87;;;12.00;99.90;;;;;;5097677;28;20211;-42
2022/06/28 00:47:09;;;;;;;2.00;1.50;;;12.00;99.90;;;;;;5115957;28;20186;-43
2022/06/28 00:49:40;;;;;;;2.27;1.57;;;11.90;99.90;;;;;;5115744;28;20295;-43
2022/06/28 00:52:07;;;;;;;3.53;1.43;;;11.90;99.90;;;;;;5117283;28;20202;-42
2022/06/28 00:54:33;;;;;;;2.33;2.07;;;11.80;99.90;;;;;;5115737;28;20223;-42
2022/06/28 00:56:59;;;;;;;5.37;1.80;;;11.80;99.90;;;;;;5115894;28;20639;-43
2022/06/28 00:59:25;;;;;;;7.50;1.80;;;11.80;99.90;;;;;;5115706;28;20214;-41
2022/06/28 01:01:50;;;;;;;3.83;1.60;;;11.80;99.90;;;;;;5115806;28;20513;-43
2022/06/28 01:04:16;;;;;;;3.53;1.40;;;11.80;99.90;;;;;;5116999;28;20178;-42
2022/06/28 01:06:42;;;;;;;7.63;1.90;;;11.80;99.90;;;;;;5115709;28;20213;-43
2022/06/28 01:09:08;;;;;;;3.17;1.70;;;11.70;99.90;;;;;;5097621;28;20300;-43
2022/06/28 01:11:34;;;;;;;1.90;1.50;;;11.70;99.90;;;;;;5115941;28;20265;-40
2022/06/28 01:14:02;;;;;;;4.83;2.13;;;11.70;99.90;;;;;;5115699;28;20219;-39
2022/06/28 01:16:28;;;;;;;4.97;1.90;;;11.70;99.90;;;;;;5115503;28;20546;-41
2022/06/28 01:18:54;;;;;;;2.20;1.73;;;11.60;99.90;;;;;;5096866;28;20201;-42
2022/06/28 01:21:24;;;;;;;2.00;1.67;;;11.60;99.90;;;;;;5115184;28;20182;-42
2022/06/28 01:23:49;;;;;;;3.53;1.37;;;11.60;99.90;;;;;;5115044;28;20217;-44
2022/06/28 01:26:19;;;;;;;5.77;1.90;;;11.60;99.90;;;;;;5114938;28;20239;-41
2022/06/28 01:28:46;;;;;;;4.97;1.70;;;11.60;99.90;;;;;;5115140;28;20217;-43
2022/06/28 01:31:12;;;;;;;5.53;1.57;;;11.50;99.90;;;;;;5114992;28;20171;-41
2022/06/28 01:33:39;;;;;;;1.83;1.40;;;11.50;99.90;;;;;;5114977;28;20188;-42
2022/06/28 01:36:06;;;;;;;5.07;1.77;;;11.50;99.90;;;;;;5114881;28;20201;-43
2022/06/28 01:38:32;;;;;;;3.00;1.40;;;11.40;99.90;;;;;;5114853;28;20190;-41
2022/06/28 01:40:58;;;;;;;6.20;1.83;;;11.40;99.90;;;;;;5115100;28;20188;-41
2022/06/28 01:43:24;;;;;;;6.43;1.53;;;11.40;99.90;;;;;;5114782;28;20178;-41
2022/06/28 01:45:51;;;;;;;2.90;1.60;;;11.40;99.90;;;;;;5096981;28;20699;-43
2022/06/28 01:48:20;;;;;;;2.43;1.20;;;11.40;99.90;;;;;;5114657;28;20216;-43
2022/06/28 01:50:47;;;;;;;2.93;1.50;;;11.40;99.90;;;;;;5114491;28;20238;-42
2022/06/28 01:53:13;;;;;;;2.50;1.70;;;11.30;99.90;;;;;;5114496;28;20184;-43
2022/06/28 01:55:39;;;;;;;6.10;1.60;;;11.30;99.90;;;;;;5114623;28;20178;-43
2022/06/28 01:58:05;;;;;;;4.00;1.43;;;11.30;99.90;;;;;;5114840;28;20600;-42
2022/06/28 02:00:31;;;;;;;3.03;1.30;;;11.30;99.90;;;;;;5114450;28;20205;-43
2022/06/28 02:02:57;;;;;;;3.30;1.73;;;11.20;99.90;;;;;;5114736;28;20244;-39
2022/06/28 02:05:23;;;;;;;3.40;1.50;;;11.20;99.90;;;;;;5114396;28;20186;-39
2022/06/28 02:07:50;;;;;;;5.27;1.70;;;11.20;99.90;;;;;;5114637;28;20525;-43
2022/06/28 02:10:19;;;;;;;5.33;1.50;;;11.10;99.90;;;;;;5114295;28;20709;-40
2022/06/28 02:12:45;;;;;;;4.30;1.73;;;11.10;99.90;;;;;;5114545;28;20201;-40
2022/06/28 02:15:11;;;;;;;3.23;1.70;;;11.10;99.90;;;;;;5114156;28;20253;-39
2022/06/28 02:17:37;;;;;;;7.40;1.60;;;11.10;99.90;;;;;;5114222;28;20188;-40
2022/06/28 02:20:04;;;;;;;1.60;1.33;;;11.10;99.90;;;;;;5114279;28;20678;-37
2022/06/28 02:22:30;;;;;;;7.37;1.77;;;11.00;99.90;;;;;;5114091;28;20668;-38
2022/06/28 02:24:55;;;;;;;5.27;1.77;;;11.00;99.90;;;;;;5095130;28;20209;-38
2022/06/28 02:27:21;;;;;;;6.37;1.80;;;11.00;99.90;;;;;;5113976;28;20638;-40
2022/06/28 02:29:47;;;;;;;6.93;1.73;;;11.00;99.90;;;;;;5113791;28;20220;-40
2022/06/28 02:32:13;;;;;;;3.90;1.60;;;10.90;99.90;;;;;;5095653;28;20238;-39
2022/06/28 02:40:24;;;;;;;3.67;1.50;;;10.90;99.90;;;;;;5114142;28;20211;-39
2022/06/28 02:42:54;;;;;;;7.93;1.87;;;10.90;99.90;;;;;;5114309;28;20161;-39
2022/06/28 02:45:21;;;;;;;3.93;1.43;;;10.80;99.90;;;;;;5114124;28;20175;-38
2022/06/28 02:47:47;;;;;;;6.27;1.90;;;10.80;99.90;;;;;;5114107;28;20183;-40
2022/06/28 02:50:13;;;;;;;7.53;1.70;;;10.80;99.90;;;;;;5113699;28;20204;-41
2022/06/28 02:52:39;;;;;;;2.50;1.50;;;10.80;99.90;;;;;;5113833;28;20686;-42
2022/06/28 02:55:06;;;;;;;7.53;1.80;;;10.70;99.90;;;;;;5114549;28;20221;-45
2022/06/28 02:57:32;;;;;;;1.43;1.33;;;10.70;99.90;;;;;;5115719;28;20227;-45
2022/06/28 02:59:58;;;;;;;7.60;1.80;;;10.70;99.90;;;;;;5115503;28;20279;-45
2022/06/28 03:02:24;;;;;;;6.10;1.50;;;10.70;99.90;;;;;;5115839;28;20664;-45
2022/06/28 03:04:49;;;;;;;6.67;2.20;;;10.70;99.90;;;;;;5115304;28;20184;-38
2022/06/28 03:07:15;;;;;;;7.60;1.97;;;10.60;99.90;;;;;;5113704;28;20188;-36
2022/06/28 03:09:41;;;;;;;2.13;1.50;;;10.60;99.90;;;;;;5095262;28;20281;-39
2022/06/28 03:12:07;;;;;;;2.83;1.73;;;10.60;99.90;;;;;;5113657;28;20179;-39
2022/06/28 03:14:33;;;;;;;4.57;2.00;;;10.60;99.90;;;;;;5113636;28;20203;-40
2022/06/28 03:16:59;;;;;;;3.07;1.63;;;10.50;99.90;;;;;;5115815;28;20236;-40
2022/06/28 03:19:25;;;;;;;7.33;2.07;;;10.50;99.90;;;;;;5114085;28;20215;-40
2022/06/28 03:21:51;;;;;;;4.50;1.83;;;10.50;99.90;;;;;;5113937;28;20175;-39
2022/06/28 03:24:17;;;;;;;7.73;1.77;;;10.40;99.90;;;;;;5113395;28;20181;-37
2022/06/28 03:26:43;;;;;;;4.60;1.80;;;10.40;99.90;;;;;;5114334;28;20620;-40
2022/06/28 03:29:09;;;;;;;5.10;1.90;;;10.40;99.90;;;;;;5113459;28;20296;-36
2022/06/28 03:31:35;;;;;;;4.93;1.63;;;10.40;99.90;;;;;;5113394;28;20641;-41
2022/06/28 03:34:01;;;;;;;8.60;2.23;;;10.40;99.90;;;;;;5113428;28;20182;-38
2022/06/28 03:36:26;;;;;;;5.23;2.00;;;10.30;99.90;;;;;;5116311;28;20230;-39
2022/06/28 03:38:52;;;;;;;4.47;1.80;;;10.30;99.90;;;;;;5117412;28;20209;-40
2022/06/28 03:41:24;;;;;;;5.80;1.90;;;10.30;99.90;;;;;;5117276;28;20658;-39
2022/06/28 03:43:51;;;;;;;1.73;1.50;;;10.30;99.90;;;;;;5117308;28;20604;-38
2022/06/28 03:46:17;;;;;;;5.30;1.40;;;10.30;99.90;;;;;;5117593;28;20175;-39
2022/06/28 03:48:44;;;;;;;3.77;1.87;;;10.30;99.90;;;;;;5117122;28;20231;-39
2022/06/28 03:51:10;;;;;;;4.50;1.77;;;10.30;99.90;;;;;;5117247;28;20266;-39
2022/06/28 03:53:37;;;;;;;3.40;1.80;;;10.30;99.90;;;;;;5117009;28;20176;-39
2022/06/28 03:56:04;;;;;;;5.83;2.03;;;10.30;99.90;;;;;;5117883;28;20172;-40
2022/06/28 03:58:29;;;;;;;5.50;2.03;;;10.30;99.90;;;;;;5117384;28;20188;-40
2022/06/28 04:00:55;;;;;;;3.30;1.80;;;10.30;99.90;;;;;;5117344;28;20637;-39
2022/06/28 04:03:21;;;;;;;3.37;1.90;;;10.30;99.90;;;;;;5117493;28;20175;-42
2022/06/28 04:05:47;;;;;;;4.57;1.83;;;10.30;99.90;;;;;;5117014;28;20267;-39
2022/06/28 04:08:12;;;;;;;2.67;1.53;;;10.30;99.90;;;;;;5116601;28;20714;-40
2022/06/28 04:10:38;;;;;;;5.40;1.83;;;10.30;99.90;;;;;;5098257;28;20207;-40
2022/06/28 04:13:04;;;;;;;5.30;1.67;;;10.40;99.90;;;;;;5116547;28;20264;-40
2022/06/28 04:15:29;;;;;;;5.20;1.67;;;10.40;99.90;;;;;;5116530;28;20178;-40
2022/06/28 04:17:55;;;;;;;6.97;2.27;;;10.40;99.90;;;;;;5116720;28;20189;-41
2022/06/28 04:20:21;;;;;;;6.30;1.97;;;10.40;99.90;;;;;;5116445;28;20710;-40
2022/06/28 04:22:46;;;;;;;9.50;2.20;;;10.50;99.90;;;;;;5116867;28;20218;-40
2022/06/28 04:25:12;;;;;;;9.03;2.10;;;10.50;99.90;;;;;;5116619;28;20230;-38
2022/06/28 04:27:37;;;;;;;10.10;2.13;;;10.50;99.90;;;;;;5116821;28;20685;-37
2022/06/28 04:30:04;;;;;;;10.57;2.80;;;10.60;99.90;;;;;;5116531;28;20249;-39
2022/06/28 04:32:30;;;;;;;4.60;2.53;;;10.60;99.90;;;;;;5117588;28;20228;-38
2022/06/28 04:34:56;;;;;;;9.53;2.90;;;10.60;99.90;;;;;;5117990;28;20170;-40
2022/06/28 04:37:22;;;;;;;2.60;2.10;;;10.70;99.90;;;;;;5118693;28;20673;-39
2022/06/28 04:39:48;;;;;;;7.00;2.63;;;10.80;99.90;;;;;;5116055;28;20193;-39
2022/06/28 04:42:14;;;;;;;4.97;2.10;;;10.80;99.90;;;;;;5116316;28;20635;-39
2022/06/28 04:44:40;;;;;;;4.23;2.37;;;10.90;99.90;;;;;;5116281;28;20265;-37
2022/06/28 04:47:06;;;;;;;6.47;2.97;;;10.90;99.90;;;;;;5115383;28;20545;-39
2022/06/28 04:49:32;;;;;;;8.00;2.27;;;11.00;99.90;;;;;;5115980;28;20252;-39
2022/06/28 04:51:57;;;;;;;4.43;2.27;;;11.10;99.90;;;;;;5116663;28;20170;-40
2022/06/28 04:54:23;;;;;;;8.57;2.50;;;11.10;99.90;;;;;;5119356;28;20171;-41
2022/06/28 04:56:49;;;;;;;7.10;2.33;;;11.20;99.90;;;;;;5119070;28;20290;-43
2022/06/28 04:59:15;;;;;;;7.27;2.63;;;11.20;99.90;;;;;;5117990;28;20732;-44
2022/06/28 05:01:41;;;;;;;5.93;2.20;;;11.30;99.90;;;;;;5099555;28;20183;-45
2022/06/28 05:04:07;;;;;;;6.47;2.17;;;11.50;99.90;;;;;;5116839;28;20184;-45
2022/06/28 05:06:32;;;;;;;7.97;2.60;;;11.50;99.90;;;;;;5116694;28;20180;-45
2022/06/28 05:08:58;;;;;;;5.60;2.47;;;11.60;99.90;;;;;;5116527;28;20256;-45
2022/06/28 05:11:24;;;;;;;5.13;2.20;;;11.70;99.90;;;;;;5116563;28;20179;-45
2022/06/28 05:13:50;;;;;;;6.90;2.50;;;11.70;99.90;;;;;;5116504;28;20182;-45
2022/06/28 05:16:16;;;;;;;7.57;2.40;;;11.80;99.90;;;;;;5115541;28;20171;-40
2022/06/28 05:18:42;;;;;;;5.13;2.10;;;11.80;99.90;;;;;;5115427;28;20223;-41
2022/06/28 05:21:07;;;;;;;5.53;2.23;;;11.90;99.90;;;;;;5115170;28;20639;-39
2022/06/28 05:23:33;;;;;;;5.03;2.67;;;12.00;99.90;;;;;;5115384;28;20176;-38
2022/06/28 05:25:59;;;;;;;8.97;2.40;;;12.10;99.90;;;;;;5115061;28;20694;-42
2022/06/28 05:28:24;;;;;;;3.70;2.30;;;12.20;99.90;;;;;;5115100;28;20242;-39
2022/06/28 05:30:50;;;;;;;11.13;3.10;;;12.30;99.90;;;;;;5115702;28;20208;-41
2022/06/28 05:33:16;;;;;;;3.87;2.33;;;12.30;99.90;;;;;;5115212;28;20172;-39
2022/06/28 05:35:42;;;;;;;5.63;2.60;;;12.40;99.90;;;;;;5115160;28;20240;-40
2022/06/28 05:38:07;;;;;;;5.43;3.10;;;12.60;99.90;;;;;;5114837;28;20181;-42
2022/06/28 05:40:33;;;;;;;4.87;2.77;;;12.60;99.90;;;;;;5096493;28;20205;-38
2022/06/28 05:42:59;;;;;;;5.77;2.87;;;12.80;99.90;;;;;;5114774;28;20233;-40
2022/06/28 05:45:25;;;;;;;6.50;2.73;;;12.90;99.90;;;;;;5114800;28;20194;-41
2022/06/28 05:47:51;;;;;;;9.63;3.00;;;13.00;99.90;;;;;;5114720;28;20198;-39
2022/06/28 05:50:17;;;;;;;5.53;2.87;;;13.10;99.90;;;;;;5114797;28;20223;-41
2022/06/28 05:52:42;;;;;;;6.13;2.70;;;13.20;99.90;;;;;;5096591;28;20184;-41
2022/06/28 05:55:08;;;;;;;6.40;2.57;;;13.30;99.90;;;;;;5114922;28;20177;-40
2022/06/28 05:57:34;;;;;;;6.47;2.20;;;13.40;99.90;;;;;;5096548;28;20524;-40
2022/06/28 05:59:59;;;;;;;8.23;2.60;;;13.50;99.90;;;;;;5113604;28;20208;-40
2022/06/28 06:02:25;;;;;;;5.17;2.43;;;13.60;99.90;;;;;;5115022;28;20657;-40
2022/06/28 06:04:54;;;;;;;4.40;2.27;;;13.80;99.90;;;;;;5114499;28;20215;-39
2022/06/28 06:07:20;;;;;;;5.40;2.50;;;13.90;99.90;;;;;;5096612;28;20185;-41
2022/06/28 06:09:45;;;;;;;6.57;2.30;;;14.10;99.90;;;;;;5114627;28;20602;-39
2022/06/28 06:12:11;;;;;;;3.37;1.80;;;14.30;99.90;;;;;;5114948;28;20272;-40
2022/06/28 06:14:37;;;;;;;6.17;2.20;;;14.60;99.90;;;;;;5096191;28;20178;-42
2022/06/28 06:17:03;;;;;;;3.17;2.23;;;14.90;99.90;;;;;;5095965;28;20178;-42
2022/06/28 06:19:28;;;;;;;5.37;2.30;;;15.10;99.90;;;;;;5113926;28;20693;-42
2022/06/28 06:21:55;;;;;;;3.80;2.10;;;15.40;99.90;;;;;;5114342;28;20178;-39
2022/06/28 06:24:21;;;;;;;3.40;1.97;;;15.70;99.90;;;;;;5113901;28;20764;-42
2022/06/28 06:26:46;;;;;;;3.57;1.90;;;15.90;99.90;;;;;;5114401;28;20260;-41
2022/06/28 06:29:12;;;;;;;2.53;1.83;;;16.10;99.90;;;;;;5113919;28;20233;-42
2022/06/28 06:31:38;;;;;;;7.77;2.10;;;16.20;99.90;;;;;;5113991;28;20306;-40
2022/06/28 06:34:04;;;;;;;5.30;2.23;;;16.60;99.90;;;;;;5114340;28;20178;-39
2022/06/28 06:36:29;;;;;;;2.90;1.90;;;16.90;99.90;;;;;;5095662;28;20178;-39
2022/06/28 06:38:55;;;;;;;4.87;1.77;;;17.20;99.90;;;;;;5113823;28;20245;-41
2022/06/28 06:41:21;;;;;;;3.20;1.73;;;17.50;99.90;;;;;;5113980;28;20189;-40
2022/06/28 06:43:46;;;;;;;4.20;2.00;;;17.50;99.90;;;;;;5114165;28;20182;-40
2022/06/28 06:46:12;;;;;;;5.37;1.50;;;17.60;99.90;;;;;;5095602;28;20189;-40
2022/06/28 06:48:38;;;;;;;3.33;1.70;;;17.70;99.90;;;;;;5114171;28;20247;-39
2022/06/28 06:51:03;;;;;;;4.20;1.70;;;17.70;99.90;;;;;;5113897;28;20190;-39
2022/06/28 06:53:29;;;;;;;6.50;1.50;;;17.70;99.90;;;;;;5113767;28;20170;-41
2022/06/28 06:55:55;;;;;;;5.50;2.00;;;18.00;99.90;;;;;;5114053;28;20182;-42
2022/06/28 06:58:21;;;;;;;6.27;1.53;;;18.30;99.90;;;;;;5095498;28;20201;-40
2022/06/28 07:00:46;;;;;;;2.90;1.27;;;18.50;99.90;;;;;;5113735;28;20202;-41
2022/06/28 07:03:12;;;;;;;3.10;1.47;;;18.70;99.90;;;;;;5114035;28;20170;-39
2022/06/28 07:05:38;;;;;;;4.13;1.50;;;19.00;99.90;;;;;;5113997;28;20203;-38
2022/06/28 07:08:04;;;;;;;8.83;1.50;;;19.10;99.90;;;;;;5095796;28;20182;-40
2022/06/28 07:10:29;;;;;;;5.73;1.40;;;19.20;99.90;;;;;;5096399;28;20279;-40
2022/06/28 07:12:55;;;;;;;4.13;1.20;;;19.30;99.90;;;;;;5099402;28;20213;-37
2022/06/28 07:15:21;;;;;;;2.33;1.13;;;19.50;99.90;;;;;;5117725;28;20167;-39
2022/06/28 07:17:46;;;;;;;1.83;1.40;;;19.60;99.90;;;;;;5117589;28;20636;-39
2022/06/28 07:20:12;;;;;;;3.80;1.23;;;19.80;99.90;;;;;;5118431;28;20206;-38
2022/06/28 07:22:38;;;;;;;4.17;1.13;;;20.10;99.90;;;;;;5099318;28;20178;-38
2022/06/28 07:25:04;;;;;;;2.40;1.10;;;20.30;99.90;;;;;;5117399;28;20730;-40
2022/06/28 07:27:30;;;;;;;1.77;1.20;;;20.40;99.90;;;;;;5117676;28;20190;-39
2022/06/28 07:29:55;;;;;;;2.37;0.83;;;20.50;99.90;;;;;;5117177;28;20210;-39
2022/06/28 07:32:21;;;;;;;4.20;1.30;;;20.60;99.90;;;;;;5117802;28;20175;-38
2022/06/28 07:34:47;;;;;;;5.47;2.07;;;20.80;99.90;;;;;;5119626;28;20178;-40
2022/06/28 07:37:12;;;;;;;3.23;1.27;;;20.90;99.90;;;;;;5118257;28;20174;-40
2022/06/28 07:39:38;;;;;;;2.20;1.00;;;21.00;99.90;;;;;;5117175;28;20193;-38
2022/06/28 07:42:04;;;;;;;1.70;1.10;;;21.10;99.90;;;;;;5098918;28;20563;-39
2022/06/28 07:44:30;;;;;;;2.47;0.90;;;21.30;99.90;;;;;;5117261;28;20668;-38
2022/06/28 07:46:56;;;;;;;4.20;1.33;;;21.40;99.90;;;;;;5098749;28;20174;-39
2022/06/28 07:49:22;;;;;;;4.33;1.67;;;21.50;99.90;;;;;;5098792;28;20647;-41
2022/06/28 07:54:32;;;;;;;1.47;1.00;;;21.60;99.90;;;;;;5117036;28;20211;-40
2022/06/28 07:56:58;;;;;;;3.57;0.77;;;21.80;99.90;;;;;;5117446;28;20182;-41
2022/06/28 07:59:23;;;;;;;5.03;1.00;;;21.90;99.90;;;;;;5098769;28;20194;-41
2022/06/28 08:01:53;;;;;;;3.80;0.97;;;22.00;99.90;;;;;;5116999;28;20170;-38
2022/06/28 08:04:18;;;;;;;1.17;0.70;;;22.10;99.90;;;;;;5098936;28;20666;-39
2022/06/28 08:06:44;;;;;;;5.37;0.90;;;22.20;99.90;;;;;;5116641;28;20170;-39
2022/06/28 08:09:10;;;;;;;1.20;1.03;;;22.20;99.90;;;;;;5098157;28;20218;-40
2022/06/28 08:11:36;;;;;;;2.00;0.97;;;22.40;99.90;;;;;;5098324;28;20261;-38
2022/06/28 08:14:01;;;;;;;3.10;0.93;;;22.50;99.90;;;;;;5116743;28;20174;-39
2022/06/28 08:16:27;;;;;;;3.10;1.20;;;22.60;99.90;;;;;;5116733;28;20597;-42
2022/06/28 08:18:53;;;;;;;3.50;1.07;;;22.70;99.90;;;;;;5116585;28;20194;-40
2022/06/28 08:21:18;;;;;;;3.03;0.83;;;22.90;99.90;;;;;;5098411;28;20193;-40
2022/06/28 08:23:44;;;;;;;3.30;1.23;;;22.90;99.90;;;;;;5097481;28;20548;-38
2022/06/28 08:26:10;;;;;;;3.87;0.90;;;23.00;99.90;;;;;;5116241;28;20205;-40
2022/06/28 08:28:35;;;;;;;2.67;0.90;;;23.10;99.90;;;;;;5116154;28;20598;-41
2022/06/28 08:31:01;;;;;;;3.20;0.83;;;23.10;99.90;;;;;;5097882;28;20734;-40
2022/06/28 08:33:26;;;;;;;3.23;1.07;;;23.00;99.90;;;;;;5116202;28;20171;-40
2022/06/28 08:35:52;;;;;;;4.17;1.07;;;23.00;99.90;;;;;;5116093;28;20205;-39
2022/06/28 08:38:18;;;;;;;3.70;1.00;;;23.10;99.90;;;;;;5116251;28;20513;-40
2022/06/28 08:40:45;;;;;;;2.27;0.80;;;23.30;99.90;;;;;;5116251;28;20179;-40
2022/06/28 08:43:11;;;;;;;4.93;0.90;;;23.30;99.90;;;;;;5115923;28;20185;-40
2022/06/28 08:45:37;;;;;;;3.53;1.00;;;23.50;99.90;;;;;;5116146;28;20182;-40
2022/06/28 08:48:27;;;;;;;2.97;1.00;;;23.60;99.90;;;;;;5097563;28;20645;-42
2022/06/28 08:50:53;;;;;;;1.53;0.57;;;23.80;99.90;;;;;;5116036;28;20633;-40
2022/06/28 08:53:22;;;;;;;3.87;0.90;;;23.80;99.90;;;;;;5116777;28;20178;-46
2022/06/28 08:55:48;;;;;;;2.33;1.10;;;23.80;99.90;;;;;;5118197;28;20170;-47
2022/06/28 08:58:15;;;;;;;3.57;0.90;;;23.70;99.90;;;;;;5098883;28;20189;-45
2022/06/28 09:00:41;;;;;;;1.90;0.90;;;23.80;99.90;;;;;;5116880;28;20174;-46
2022/06/28 09:03:06;;;;;;;1.73;0.77;;;23.90;99.90;;;;;;5117081;28;20166;-46
2022/06/28 09:05:32;;;;;;;6.80;1.13;;;24.00;99.90;;;;;;5117080;28;20173;-45
2022/06/28 09:07:58;;;;;;;5.03;1.20;;;24.10;99.90;;;;;;5117049;28;20257;-45
2022/06/28 09:10:25;;;;;;;1.93;0.60;;;24.20;99.90;;;;;;5117315;28;20194;-44
2022/06/28 09:13:07;;;;;;;3.47;0.93;;;24.30;99.90;;;;;;5116505;28;20174;-44
2022/06/28 09:15:47;;;;;;;8.07;1.10;;;24.50;99.90;;;;;;5115760;28;20193;-44
2022/06/28 09:18:13;;;;;;;1.53;0.77;;;24.50;99.90;;;;;;5115828;28;20162;-43
2022/06/28 09:20:39;;;;;;;2.47;0.80;;;24.50;99.90;;;;;;5115918;28;20547;-41
2022/06/28 09:23:20;;;;;;;3.30;1.10;;;24.50;99.90;;;;;;5099439;28;20251;-45
2022/06/28 09:25:47;;;;;;;1.87;0.70;;;24.60;99.90;;;;;;5117715;28;20680;-45
2022/06/28 09:28:27;;;;;;;1.83;0.77;;;24.70;99.90;;;;;;5118495;28;20566;-46
2022/06/28 09:31:13;;;;;;;3.13;1.30;;;24.80;99.90;;;;;;5119279;28;20190;-46
2022/06/28 09:33:39;;;;;;;1.97;0.70;;;24.80;99.90;;;;;;5118514;28;20359;-46
2022/06/28 09:36:05;;;;;;;2.97;0.70;;;24.80;99.90;;;;;;5118006;28;20240;-45
2022/06/28 09:38:32;;;;;;;1.93;0.80;;;24.80;99.90;;;;;;5118172;28;20582;-47
2022/06/28 09:41:01;;;;;;;4.30;1.10;;;24.90;99.90;;;;;;5118682;28;20181;-44
2022/06/28 09:43:33;;;;;;;2.77;0.60;;;25.00;99.90;;;;;;5100916;28;20174;-46
2022/06/28 09:46:03;;;;;;;2.27;0.70;;;25.00;99.90;;;;;;5118733;28;20182;-46
2022/06/28 09:48:36;;;;;;;1.97;0.70;;;25.00;99.90;;;;;;5118975;28;20186;-45
2022/06/28 09:51:02;;;;;;;0.80;0.50;;;25.10;99.90;;;;;;5118537;28;20599;-45
2022/06/28 09:53:29;;;;;;;3.10;0.90;;;25.30;99.90;;;;;;5118301;28;20661;-46
2022/06/28 09:56:00;;;;;;;2.13;0.70;;;25.40;99.90;;;;;;5117432;28;20738;-47
2022/06/28 09:58:26;;;;;;;4.13;0.90;;;25.30;99.90;;;;;;5117496;28;20645;-44
2022/06/28 10:00:53;;;;;;;6.63;1.10;;;25.30;99.90;;;;;;5117479;28;20178;-47
2022/06/28 10:03:19;;;;;;;3.40;1.13;;;25.20;99.90;;;;;;5117872;28;20577;-44
2022/06/28 10:05:45;;;;;;;4.67;1.20;;;25.00;99.90;;;;;;5096199;28;20178;-41
2022/06/28 10:08:11;;;;;;;5.77;1.00;;;24.90;99.90;;;;;;5114360;28;20204;-41
2022/06/28 10:10:37;;;;;;;3.97;1.10;;;24.80;99.90;;;;;;5114514;28;20578;-39
2022/06/28 10:16:03;;;;;;;2.27;0.97;;;25.00;99.90;;;;;;5114338;28;20535;-41
2022/06/28 10:18:29;;;;;;;4.47;1.10;;;25.20;99.90;;;;;;5114409;28;20154;-42
2022/06/28 10:20:55;;;;;;;1.57;0.70;;;25.30;99.90;;;;;;5114439;28;20251;-43
2022/06/28 10:23:37;;;;;;;5.30;1.00;;;25.30;99.90;;;;;;5114444;28;20633;-41
2022/06/28 10:26:14;;;;;;;3.72;1.17;;;25.40;99.90;;;;;;5114077;28;20189;-42
2022/06/28 10:28:43;;;;;;;3.13;1.03;;;25.60;99.90;;;;;;5114152;28;20273;-43
2022/06/28 10:31:23;;;;;;;2.83;1.15;;;25.60;99.90;;;;;;5115374;28;20277;-46
2022/06/28 10:33:51;;;;;;;5.27;1.30;;;25.60;99.90;;;;;;5119008;28;20223;-46
2022/06/28 10:36:19;;;;;;;2.80;1.10;;;25.60;99.90;;;;;;5117913;28;20170;-48
2022/06/28 10:39:09;;;;;;;5.47;1.23;;;25.90;99.90;;;;;;5117119;28;20206;-45
2022/06/28 10:41:41;;;;;;;4.43;0.82;;;26.00;99.90;;;;;;5098851;28;20178;-47
2022/06/28 10:44:12;;;;;;;5.72;1.00;;;26.10;99.90;;;;;;5116008;28;20235;-45
2022/06/28 10:46:39;;;;;;;5.80;0.85;;;26.20;99.90;;;;;;5115748;28;20194;-46
2022/06/28 10:49:14;;;;;;;5.30;1.00;;;26.20;99.90;;;;;;5116404;28;20198;-47
2022/06/28 10:52:32;;;;;;;2.50;1.10;;;26.20;99.90;;;;;;5116209;28;20165;-46
2022/06/28 10:54:58;;;;;;;4.40;0.85;;;26.30;99.90;;;;;;5065352;28;20190;-46
2022/06/28 10:57:30;;;;;;;5.53;0.70;;;26.30;99.90;;;;;;5097629;28;20632;-45
2022/06/28 10:59:57;;;;;;;2.17;1.10;;;26.10;99.90;;;;;;5116700;28;20201;-47
2022/06/28 11:02:23;;;;;;;1.17;0.60;;;26.00;99.90;;;;;;5118118;28;20174;-46
2022/06/28 11:05:08;;;;;;;2.35;1.35;;;26.10;99.90;;;;;;5117797;28;20544;-48
2022/06/28 11:07:35;;;;;;;3.70;1.10;;;26.30;99.90;;;;;;5118015;28;20178;-46
2022/06/28 11:10:00;;;;;;;4.13;0.82;;;26.30;99.90;;;;;;5117623;28;20198;-47
2022/06/28 11:12:30;;;;;;;1.23;0.47;;;26.50;99.90;;;;;;5114315;28;20178;-43
2022/06/28 11:15:01;;;;;;;3.58;1.17;;;26.70;99.90;;;;;;5113929;28;20189;-42
2022/06/28 11:17:27;;;;;;;2.08;0.60;;;26.90;99.90;;;;;;5113805;28;20203;-43
2022/06/28 11:20:00;;;;;;;2.67;0.85;;;26.90;99.90;;;;;;5113990;28;20266;-40
2022/06/28 11:22:37;;;;;;;3.80;0.70;;;26.90;99.90;;;;;;5113955;28;20159;-41
2022/06/28 11:25:05;;;;;;;3.13;0.68;;;26.90;99.90;;;;;;5113565;28;20201;-42
2022/06/28 11:27:32;;;;;;;3.25;1.20;;;27.10;99.90;;;;;;5113433;28;20586;-44
2022/06/28 11:30:00;;;;;;;2.50;1.05;;;27.20;99.90;;;;;;5113215;28;20346;-40
2022/06/28 11:32:30;;;;;;;2.15;0.90;;;27.20;99.90;;;;;;5114019;28;20626;-43
2022/06/28 11:34:57;;;;;;;4.97;1.00;;;27.30;99.90;;;;;;5113521;28;20572;-42
2022/06/28 11:37:23;;;;;;;4.25;0.90;;;27.30;99.90;;;;;;5113855;28;20586;-44
2022/06/28 11:39:57;;;;;;;4.70;0.68;;;27.40;99.90;;;;;;5113454;28;20247;-42
2022/06/28 11:42:23;;;;;;;2.55;0.90;;;27.40;99.90;;;;;;5113610;28;20167;-41
2022/06/28 11:44:50;;;;;;;1.70;0.77;;;27.40;99.90;;;;;;5113471;28;20174;-43
2022/06/28 11:47:16;;;;;;;2.83;0.90;;;27.20;99.90;;;;;;5113641;28;20193;-43
2022/06/28 11:49:43;;;;;;;3.83;0.80;;;27.00;99.90;;;;;;5113302;28;20202;-41
2022/06/28 11:52:14;;;;;;;1.13;0.60;;;27.00;99.90;;;;;;5113310;28;20170;-41
2022/06/28 11:54:42;;;;;;;1.85;0.90;;;27.20;99.90;;;;;;5095086;28;20532;-42
2022/06/28 11:57:15;;;;;;;2.97;0.73;;;27.30;99.90;;;;;;5113610;28;20653;-41
2022/06/28 11:59:58;;;;;;;2.35;0.70;;;27.50;99.90;;;;;;5116825;28;20194;-43
2022/06/28 12:02:40;;;;;;;1.23;0.70;;;27.80;99.90;;;;;;5117052;28;20173;-43
2022/06/28 12:05:06;;;;;;;3.08;0.75;;;28.00;99.90;;;;;;5117259;28;20186;-43
2022/06/28 12:07:33;;;;;;;1.58;0.68;;;28.10;99.90;;;;;;5116667;28;20253;-41
2022/06/28 12:09:59;;;;;;;1.80;0.75;;;28.20;99.90;;;;;;5116713;28;20267;-43
2022/06/28 12:12:25;;;;;;;5.18;0.95;;;28.30;99.90;;;;;;5116853;28;20645;-43
2022/06/28 12:14:55;;;;;;;2.13;0.60;;;28.50;99.90;;;;;;5098223;28;20261;-45
2022/06/28 12:17:21;;;;;;;1.30;0.70;;;28.70;99.90;;;;;;5117179;28;20186;-43
2022/06/28 12:19:47;;;;;;;1.85;0.80;;;28.60;99.70;;;;;;5116796;28;20673;-41
2022/06/28 12:22:16;;;;;;;2.50;1.00;;;28.50;99.90;;;;;;5116453;28;20182;-43
2022/06/28 12:24:42;;;;;;;0.80;0.63;;;28.50;99.90;;;;;;5116299;28;20222;-40
2022/06/28 12:27:08;;;;;;;1.60;0.75;;;28.70;99.90;;;;;;5116560;28;20187;-41
2022/06/28 12:29:34;;;;;;;2.78;0.70;;;28.80;99.90;;;;;;5098065;28;20210;-44
2022/06/28 12:32:00;;;;;;;2.63;0.70;;;28.90;99.90;;;;;;5116174;28;20200;-43
2022/06/28 12:34:25;;;;;;;1.80;0.80;;;28.90;99.90;;;;;;5116149;28;20178;-42
2022/06/28 12:36:51;;;;;;;2.15;0.88;;;28.90;99.90;;;;;;5116123;28;20166;-44
2022/06/28 12:39:17;;;;;;;2.50;0.73;;;29.00;99.90;;;;;;5116316;28;20198;-40
2022/06/28 12:41:42;;;;;;;2.67;0.88;;;29.00;99.90;;;;;;5115982;28;20178;-41
2022/06/28 12:44:09;;;;;;;3.33;0.70;;;29.00;99.00;;;;;;5116175;28;20201;-44
2022/06/28 12:46:34;;;;;;;2.83;0.68;;;28.90;99.90;;;;;;5098023;28;20198;-39
2022/06/28 12:49:00;;;;;;;2.13;0.73;;;28.90;99.10;;;;;;5115714;28;20669;-43
2022/06/28 12:51:26;;;;;;;3.15;0.80;;;28.90;99.90;;;;;;5115857;28;20171;-42
2022/06/28 12:53:52;;;;;;;1.23;0.80;;;29.00;99.90;;;;;;5116010;28;20533;-44
2022/06/28 12:56:18;;;;;;;3.20;0.88;;;29.10;99.90;;;;;;5115694;28;20177;-42
2022/06/28 12:58:45;;;;;;;2.53;0.90;;;29.20;99.90;;;;;;5115792;28;20183;-41